Time;durP1;ratioP1;P1;durP2;ratioP2;P2;SDS_P1;SDS_P2;PMS_P1;PMS_P2;Temp;Humidity;BMP_temperature;BMP_pressure;BME280_temperature;BME280_humidity;BME280_pressure;Samples;Min_cycle;Max_cycle;Signal;HPM_P1;HPM_P2
2021/08/12 00:00:20;;;;;;;5.82;4.90;;;;;;;;;;5092344;28;20080;-42
2021/08/12 00:02:46;;;;;;;6.15;4.95;;;;;;;;;;5092650;28;20028;-43
2021/08/12 00:05:12;;;;;;;6.03;5.00;;;;;;;;;;5092267;28;20107;-42
2021/08/12 00:07:38;;;;;;;6.65;4.88;;;;;;;;;;5092323;28;20024;-44
2021/08/12 00:10:04;;;;;;;6.22;5.47;;;;;;;;;;5092421;28;20024;-45
2021/08/12 00:12:30;;;;;;;6.57;4.88;;;;;;;;;;5092226;28;20043;-43
2021/08/12 00:14:56;;;;;;;5.88;4.78;;;;;;;;;;5092368;28;20016;-43
2021/08/12 00:17:23;;;;;;;5.88;4.80;;;;;;;;;;5092252;28;20457;-43
2021/08/12 00:19:49;;;;;;;7.10;5.15;;;;;;;;;;5092170;28;20074;-44
2021/08/12 00:22:15;;;;;;;6.97;5.10;;;;;;;;;;5092184;28;20036;-43
2021/08/12 00:24:41;;;;;;;7.18;5.15;;;;;;;;;;5092014;28;20063;-43
2021/08/12 00:27:07;;;;;;;4.72;4.10;;;;;;;;;;5092099;28;20031;-44
2021/08/12 00:29:33;;;;;;;5.97;5.00;;;;;;;;;;5092054;28;20089;-44
2021/08/12 00:31:59;;;;;;;6.80;4.78;;;;;;;;;;5092069;28;20052;-45
2021/08/12 00:34:25;;;;;;;6.05;4.95;;;;;;;;;;5073925;28;20062;-44
2021/08/12 00:36:51;;;;;;;5.93;4.95;;;;;;;;;;5092017;28;20394;-45
2021/08/12 00:39:18;;;;;;;5.55;4.55;;;;;;;;;;5092021;28;20036;-44
2021/08/12 00:41:44;;;;;;;7.03;5.18;;;;;;;;;;5092103;28;20028;-44
2021/08/12 00:44:10;;;;;;;5.88;4.50;;;;;;;;;;5092083;28;20028;-43
2021/08/12 00:46:36;;;;;;;5.30;4.80;;;;;;;;;;5073173;28;20024;-43
2021/08/12 00:49:02;;;;;;;5.28;4.70;;;;;;;;;;5091717;28;20019;-43
2021/08/12 00:51:29;;;;;;;5.28;4.65;;;;;;;;;;5091686;28;20478;-44
2021/08/12 00:53:56;;;;;;;5.95;4.78;;;;;;;;;;5091766;28;20464;-43
2021/08/12 00:56:22;;;;;;;4.85;4.28;;;;;;;;;;5091667;28;20170;-43
2021/08/12 00:58:48;;;;;;;5.57;4.72;;;;;;;;;;5091661;28;20054;-44
2021/08/12 01:01:14;;;;;;;6.20;4.88;;;;;;;;;;5091727;28;20028;-45
2021/08/12 01:03:40;;;;;;;5.78;4.63;;;;;;;;;;5091683;28;20028;-43
2021/08/12 01:06:07;;;;;;;5.13;4.57;;;;;;;;;;5091675;28;20028;-43
2021/08/12 01:08:36;;;;;;;10.40;4.88;;;;;;;;;;5091566;28;20095;-44
2021/08/12 01:11:17;;;;;;;5.10;4.57;;;;;;;;;;5092715;28;20024;-44
2021/08/12 01:13:43;;;;;;;4.82;4.30;;;;;;;;;;5095624;28;20463;-42
2021/08/12 01:16:11;;;;;;;5.45;4.70;;;;;;;;;;5095604;28;20031;-43
2021/08/12 01:18:42;;;;;;;7.22;4.88;;;;;;;;;;5095429;28;20052;-44
2021/08/12 01:21:11;;;;;;;9.18;4.80;;;;;;;;;;5095630;28;20023;-44
2021/08/12 01:23:38;;;;;;;5.00;4.40;;;;;;;;;;5095705;28;20066;-44
2021/08/12 01:26:05;;;;;;;6.75;4.85;;;;;;;;;;5095439;28;20024;-44
2021/08/12 01:28:38;;;;;;;5.10;4.28;;;;;;;;;;5077439;28;20099;-43
2021/08/12 01:31:21;;;;;;;5.95;4.50;;;;;;;;;;5095678;28;20875;-43
2021/08/12 01:33:56;;;;;;;6.28;4.88;;;;;;;;;;5095565;28;20055;-44
2021/08/12 01:36:23;;;;;;;4.25;3.85;;;;;;;;;;5095340;28;20509;-44
2021/08/12 01:38:51;;;;;;;7.80;4.50;;;;;;;;;;5095214;28;20103;-45
2021/08/12 01:41:18;;;;;;;4.95;4.38;;;;;;;;;;5095301;28;20036;-44
2021/08/12 01:43:44;;;;;;;5.68;4.85;;;;;;;;;;5095201;28;20432;-44
2021/08/12 01:46:10;;;;;;;5.35;4.85;;;;;;;;;;5095039;28;20107;-44
2021/08/12 01:48:36;;;;;;;6.50;4.80;;;;;;;;;;5094989;28;20058;-43
2021/08/12 01:51:03;;;;;;;6.30;4.60;;;;;;;;;;5095097;28;20035;-43
2021/08/12 01:53:29;;;;;;;6.22;4.75;;;;;;;;;;5095233;28;20723;-43
2021/08/12 01:55:56;;;;;;;7.05;5.28;;;;;;;;;;5095183;28;20862;-44
2021/08/12 01:58:24;;;;;;;14.25;5.05;;;;;;;;;;5095205;28;20023;-44
2021/08/12 02:00:52;;;;;;;7.38;5.00;;;;;;;;;;5094825;28;20127;-43
2021/08/12 02:03:18;;;;;;;6.35;4.38;;;;;;;;;;5094776;28;20425;-44
2021/08/12 02:05:47;;;;;;;9.90;4.78;;;;;;;;;;5094898;28;20048;-45
2021/08/12 02:08:13;;;;;;;5.15;4.20;;;;;;;;;;5094802;28;20524;-44
2021/08/12 02:10:40;;;;;;;5.18;4.35;;;;;;;;;;5094750;28;20020;-44
2021/08/12 02:13:08;;;;;;;7.35;4.63;;;;;;;;;;5076516;28;20374;-43
2021/08/12 02:15:34;;;;;;;5.60;4.32;;;;;;;;;;5076521;28;20024;-44
2021/08/12 02:18:00;;;;;;;6.15;4.65;;;;;;;;;;5094284;28;20059;-44
2021/08/12 02:20:26;;;;;;;4.60;4.10;;;;;;;;;;5094560;28;20028;-45
2021/08/12 02:22:58;;;;;;;5.72;4.68;;;;;;;;;;5094748;28;20028;-44
2021/08/12 02:25:39;;;;;;;5.60;4.72;;;;;;;;;;5094506;28;20030;-44
2021/08/12 02:28:07;;;;;;;7.25;5.47;;;;;;;;;;5094313;28;20077;-43
2021/08/12 02:30:35;;;;;;;6.55;5.20;;;;;;;;;;5094432;28;20788;-43
2021/08/12 02:33:02;;;;;;;5.25;4.72;;;;;;;;;;5094457;28;20024;-43
2021/08/12 02:35:29;;;;;;;5.70;4.72;;;;;;;;;;5094436;28;20704;-42
2021/08/12 02:37:57;;;;;;;5.03;4.53;;;;;;;;;;5094396;28;20042;-43
2021/08/12 02:40:25;;;;;;;7.28;4.72;;;;;;;;;;5094138;28;20447;-44
2021/08/12 02:42:51;;;;;;;5.32;4.53;;;;;;;;;;5094115;28;20046;-43
2021/08/12 02:45:18;;;;;;;6.32;4.70;;;;;;;;;;5094120;28;20024;-44
2021/08/12 02:47:44;;;;;;;7.43;4.95;;;;;;;;;;5093651;28;20720;-44
2021/08/12 02:50:11;;;;;;;7.32;5.07;;;;;;;;;;5094021;28;20016;-43
2021/08/12 02:52:37;;;;;;;6.90;5.22;;;;;;;;;;5093959;28;20052;-43
2021/08/12 02:55:04;;;;;;;6.28;5.68;;;;;;;;;;5093918;28;20020;-43
2021/08/12 02:57:31;;;;;;;6.57;5.10;;;;;;;;;;5075754;28;20787;-43
2021/08/12 02:59:57;;;;;;;6.47;4.93;;;;;;;;;;5093727;28;20024;-43
2021/08/12 03:02:24;;;;;;;5.93;5.20;;;;;;;;;;5093601;28;20020;-43
2021/08/12 03:04:50;;;;;;;6.97;4.70;;;;;;;;;;5093622;28;20069;-43
2021/08/12 03:07:18;;;;;;;6.85;5.32;;;;;;;;;;5093508;28;20028;-43
2021/08/12 03:09:48;;;;;;;6.50;4.90;;;;;;;;;;5093596;28;20412;-44
2021/08/12 03:12:15;;;;;;;6.82;5.35;;;;;;;;;;5093808;28;20059;-43
2021/08/12 03:14:42;;;;;;;7.00;4.95;;;;;;;;;;5093624;28;20070;-43
2021/08/12 03:17:11;;;;;;;5.75;5.15;;;;;;;;;;5093564;28;20109;-48
2021/08/12 03:19:37;;;;;;;6.18;5.07;;;;;;;;;;5093217;28;20036;-44
2021/08/12 03:22:07;;;;;;;6.07;5.43;;;;;;;;;;5093203;28;20040;-45
2021/08/12 03:24:34;;;;;;;8.93;5.35;;;;;;;;;;5093151;28;20047;-43
2021/08/12 03:27:01;;;;;;;7.30;5.80;;;;;;;;;;5093188;28;20454;-43
2021/08/12 03:29:27;;;;;;;6.80;5.47;;;;;;;;;;5092228;28;20031;-44
2021/08/12 03:31:53;;;;;;;7.75;5.35;;;;;;;;;;5093217;28;20046;-44
2021/08/12 03:34:19;;;;;;;10.15;5.53;;;;;;;;;;5092540;28;20016;-44
2021/08/12 03:36:45;;;;;;;6.55;5.25;;;;;;;;;;5092905;28;20028;-45
2021/08/12 03:39:11;;;;;;;7.88;5.63;;;;;;;;;;5092915;28;20024;-45
2021/08/12 03:41:38;;;;;;;6.05;5.05;;;;;;;;;;5093243;28;20861;-45
2021/08/12 03:44:04;;;;;;;5.72;5.18;;;;;;;;;;5092963;28;20028;-43
2021/08/12 03:46:30;;;;;;;8.68;5.50;;;;;;;;;;5092707;28;20028;-44
2021/08/12 03:48:57;;;;;;;6.85;4.63;;;;;;;;;;5092791;28;20379;-44
2021/08/12 03:51:23;;;;;;;4.82;4.32;;;;;;;;;;5092666;28;20043;-44
2021/08/12 03:53:49;;;;;;;6.45;5.07;;;;;;;;;;5092642;28;20035;-45
2021/08/12 03:56:15;;;;;;;7.07;6.38;;;;;;;;;;5092810;28;20074;-44
2021/08/12 03:58:41;;;;;;;6.47;5.55;;;;;;;;;;5092516;28;20489;-43
2021/08/12 04:01:07;;;;;;;5.50;4.90;;;;;;;;;;5092467;28;20028;-45
2021/08/12 04:03:33;;;;;;;7.95;5.47;;;;;;;;;;5092532;28;20024;-44
2021/08/12 04:05:59;;;;;;;8.20;5.68;;;;;;;;;;5092263;28;20020;-43
2021/08/12 04:08:26;;;;;;;6.75;5.80;;;;;;;;;;5074195;28;20073;-43
2021/08/12 04:10:52;;;;;;;7.18;6.00;;;;;;;;;;5092475;28;20074;-43
2021/08/12 04:13:18;;;;;;;6.60;5.78;;;;;;;;;;5092377;28;20399;-44
2021/08/12 04:15:44;;;;;;;5.80;5.03;;;;;;;;;;5091843;28;20439;-44
2021/08/12 04:18:10;;;;;;;9.35;5.45;;;;;;;;;;5092215;28;20491;-45
2021/08/12 04:20:36;;;;;;;8.07;5.25;;;;;;;;;;5092184;28;20020;-44
2021/08/12 04:23:02;;;;;;;6.22;5.45;;;;;;;;;;5092184;28;20031;-44
2021/08/12 04:25:28;;;;;;;9.23;5.60;;;;;;;;;;5092189;28;20035;-43
2021/08/12 04:27:54;;;;;;;7.20;4.70;;;;;;;;;;5091993;28;20028;-44
2021/08/12 04:30:21;;;;;;;6.68;5.55;;;;;;;;;;5091542;28;20066;-44
2021/08/12 04:32:47;;;;;;;6.60;5.80;;;;;;;;;;5091442;28;20441;-43
2021/08/12 04:35:14;;;;;;;6.13;5.30;;;;;;;;;;5091961;28;20545;-43
2021/08/12 04:37:45;;;;;;;7.60;5.80;;;;;;;;;;5091974;28;20470;-43
2021/08/12 04:40:16;;;;;;;8.32;5.72;;;;;;;;;;5090987;28;20031;-44
2021/08/12 04:42:43;;;;;;;5.85;5.25;;;;;;;;;;5091859;28;20487;-45
2021/08/12 04:45:09;;;;;;;6.10;5.10;;;;;;;;;;5091458;28;20035;-45
2021/08/12 04:47:35;;;;;;;6.15;5.20;;;;;;;;;;5091600;28;20021;-45
2021/08/12 04:50:01;;;;;;;6.60;5.75;;;;;;;;;;5091804;28;20027;-44
2021/08/12 04:52:27;;;;;;;8.13;5.15;;;;;;;;;;5091752;28;20028;-43
2021/08/12 04:54:53;;;;;;;8.27;6.05;;;;;;;;;;5091830;28;20467;-45
2021/08/12 04:57:19;;;;;;;8.88;5.63;;;;;;;;;;5091682;28;20060;-44
2021/08/12 04:59:46;;;;;;;6.90;5.15;;;;;;;;;;5073688;28;20020;-45
2021/08/12 05:02:12;;;;;;;9.38;6.35;;;;;;;;;;5071871;28;20073;-43
2021/08/12 05:04:38;;;;;;;6.25;5.50;;;;;;;;;;5072429;28;20089;-44
2021/08/12 05:07:04;;;;;;;6.88;5.15;;;;;;;;;;5073333;28;20020;-43
2021/08/12 05:09:30;;;;;;;6.35;5.38;;;;;;;;;;5091538;28;20020;-44
2021/08/12 05:11:58;;;;;;;12.45;6.00;;;;;;;;;;5090842;28;20398;-47
2021/08/12 05:14:24;;;;;;;7.43;5.82;;;;;;;;;;5089260;28;20020;-43
2021/08/12 05:16:50;;;;;;;11.18;5.57;;;;;;;;;;5085363;28;20055;-45
2021/08/12 05:19:16;;;;;;;7.45;5.57;;;;;;;;;;5081508;28;20029;-44
2021/08/12 05:21:42;;;;;;;9.23;6.72;;;;;;;;;;5067111;28;20035;-44
2021/08/12 05:24:08;;;;;;;6.68;5.47;;;;;;;;;;5063809;28;20116;-42
2021/08/12 05:26:34;;;;;;;8.00;6.15;;;;;;;;;;5063031;28;20024;-44
2021/08/12 05:29:00;;;;;;;5.70;5.13;;;;;;;;;;5087180;28;20158;-48
2021/08/12 05:31:26;;;;;;;7.55;5.63;;;;;;;;;;5086327;28;20069;-46
2021/08/12 05:33:52;;;;;;;7.97;6.07;;;;;;;;;;5084662;28;20028;-48
2021/08/12 05:36:18;;;;;;;6.32;5.43;;;;;;;;;;5087014;28;20028;-45
2021/08/12 05:38:44;;;;;;;6.28;5.35;;;;;;;;;;5080815;28;20016;-45
2021/08/12 05:41:10;;;;;;;6.57;4.93;;;;;;;;;;5081507;28;20021;-46
2021/08/12 05:43:36;;;;;;;8.93;6.38;;;;;;;;;;5085074;28;20383;-49
2021/08/12 05:46:03;;;;;;;5.97;5.47;;;;;;;;;;5091159;28;20454;-48
2021/08/12 05:48:29;;;;;;;6.88;5.72;;;;;;;;;;5091118;28;20020;-48
2021/08/12 05:50:55;;;;;;;8.00;6.30;;;;;;;;;;5090557;28;20490;-48
2021/08/12 05:53:21;;;;;;;8.35;6.63;;;;;;;;;;5090972;28;20024;-49
2021/08/12 05:55:47;;;;;;;8.57;6.38;;;;;;;;;;5085498;28;20082;-48
2021/08/12 05:58:14;;;;;;;7.05;5.88;;;;;;;;;;5085551;28;20024;-46
2021/08/12 06:00:40;;;;;;;8.07;6.28;;;;;;;;;;5086911;28;20023;-46
2021/08/12 06:03:10;;;;;;;8.15;5.22;;;;;;;;;;5076670;28;20024;-47
2021/08/12 06:05:36;;;;;;;6.45;5.20;;;;;;;;;;5094747;28;20450;-48
2021/08/12 06:08:03;;;;;;;8.10;5.90;;;;;;;;;;5094594;28;20107;-47
2021/08/12 06:10:29;;;;;;;7.18;5.57;;;;;;;;;;5076583;28;20016;-46
2021/08/12 06:12:56;;;;;;;7.05;5.25;;;;;;;;;;5094550;28;20035;-48
2021/08/12 06:15:22;;;;;;;7.07;5.55;;;;;;;;;;5094480;28;20476;-46
2021/08/12 06:17:48;;;;;;;8.30;5.55;;;;;;;;;;5094407;28;20399;-47
2021/08/12 06:20:14;;;;;;;7.22;5.78;;;;;;;;;;5094422;28;20016;-50
2021/08/12 06:22:40;;;;;;;6.45;5.78;;;;;;;;;;5093967;28;20032;-47
2021/08/12 06:25:06;;;;;;;7.97;5.30;;;;;;;;;;5094365;28;20012;-47
2021/08/12 06:27:32;;;;;;;7.57;5.93;;;;;;;;;;5094293;28;20028;-46
2021/08/12 06:29:58;;;;;;;6.35;4.93;;;;;;;;;;5094478;28;20024;-47
2021/08/12 06:32:26;;;;;;;6.68;5.80;;;;;;;;;;5090445;28;20028;-46
2021/08/12 06:34:52;;;;;;;6.35;5.25;;;;;;;;;;5093857;28;20016;-48
2021/08/12 06:37:18;;;;;;;7.10;5.82;;;;;;;;;;5075163;28;20059;-48
2021/08/12 06:39:44;;;;;;;6.15;5.55;;;;;;;;;;5075540;28;20449;-48
2021/08/12 06:42:10;;;;;;;8.20;5.90;;;;;;;;;;5073879;28;20029;-47
2021/08/12 06:44:36;;;;;;;13.70;6.40;;;;;;;;;;5073803;28;20487;-47
2021/08/12 06:47:03;;;;;;;7.38;5.95;;;;;;;;;;5073691;28;20025;-48
2021/08/12 06:49:29;;;;;;;7.78;6.20;;;;;;;;;;5073849;28;20028;-50
2021/08/12 06:51:55;;;;;;;6.75;5.47;;;;;;;;;;5073434;28;20585;-49
2021/08/12 06:54:21;;;;;;;6.75;5.18;;;;;;;;;;5073310;28;20099;-48
2021/08/12 06:56:47;;;;;;;6.45;5.00;;;;;;;;;;5072922;28;20479;-47
2021/08/12 06:59:13;;;;;;;7.00;5.80;;;;;;;;;;5072251;28;20039;-46
2021/08/12 07:01:39;;;;;;;7.47;5.95;;;;;;;;;;5055401;28;20024;-48
2021/08/12 07:04:05;;;;;;;7.85;5.47;;;;;;;;;;5055338;28;20021;-48
2021/08/12 07:06:31;;;;;;;5.90;5.30;;;;;;;;;;5072797;28;20031;-47
2021/08/12 07:08:57;;;;;;;6.95;5.35;;;;;;;;;;5071026;28;20099;-48
2021/08/12 07:11:23;;;;;;;6.57;5.03;;;;;;;;;;5072977;28;20020;-46
2021/08/12 07:13:49;;;;;;;5.85;5.00;;;;;;;;;;5073045;28;20459;-48
2021/08/12 07:16:18;;;;;;;9.35;5.65;;;;;;;;;;5073055;28;20035;-49
2021/08/12 07:18:45;;;;;;;7.53;5.32;;;;;;;;;;5072850;28;20572;-49
2021/08/12 07:21:17;;;;;;;6.35;5.28;;;;;;;;;;5072893;28;20020;-49
2021/08/12 07:23:45;;;;;;;6.60;5.90;;;;;;;;;;5072895;28;20094;-48
2021/08/12 07:26:13;;;;;;;6.50;5.80;;;;;;;;;;5072838;28;20032;-47
2021/08/12 07:28:42;;;;;;;6.97;5.72;;;;;;;;;;5072695;28;20455;-49
2021/08/12 07:31:09;;;;;;;6.45;5.85;;;;;;;;;;5072668;28;20431;-47
2021/08/12 07:33:36;;;;;;;5.95;5.35;;;;;;;;;;5072630;28;20020;-49
2021/08/12 07:36:02;;;;;;;6.05;4.93;;;;;;;;;;5072598;28;20031;-48
2021/08/12 07:38:29;;;;;;;7.10;5.80;;;;;;;;;;5072436;28;20053;-46
2021/08/12 07:40:55;;;;;;;7.65;5.53;;;;;;;;;;5072325;28;20031;-46
2021/08/12 07:43:21;;;;;;;5.72;5.22;;;;;;;;;;5054525;28;20387;-47
2021/08/12 07:45:47;;;;;;;6.85;5.50;;;;;;;;;;5072368;28;20474;-47
2021/08/12 07:48:14;;;;;;;6.03;4.82;;;;;;;;;;5072237;28;20024;-50
2021/08/12 07:50:40;;;;;;;12.18;5.60;;;;;;;;;;5072319;28;20066;-47
2021/08/12 07:53:06;;;;;;;5.40;4.90;;;;;;;;;;5072105;28;20033;-45
2021/08/12 07:55:32;;;;;;;6.20;5.60;;;;;;;;;;5072372;28;20047;-50
2021/08/12 07:57:58;;;;;;;6.13;5.50;;;;;;;;;;5054268;28;20039;-50
2021/08/12 08:00:25;;;;;;;6.53;4.93;;;;;;;;;;5072125;28;20036;-48
2021/08/12 08:02:51;;;;;;;7.97;5.32;;;;;;;;;;5072070;28;20036;-48
2021/08/12 08:05:18;;;;;;;7.25;4.78;;;;;;;;;;5072112;28;20024;-49
2021/08/12 08:07:44;;;;;;;7.45;4.82;;;;;;;;;;5054032;28;20433;-51
2021/08/12 08:10:10;;;;;;;5.38;4.60;;;;;;;;;;5071936;28;20017;-46
2021/08/12 08:12:37;;;;;;;7.32;5.00;;;;;;;;;;5072030;28;20025;-47
2021/08/12 08:15:04;;;;;;;5.43;4.93;;;;;;;;;;5071809;28;20104;-47
2021/08/12 08:17:30;;;;;;;5.53;4.65;;;;;;;;;;5071730;28;20059;-47
2021/08/12 08:19:57;;;;;;;7.32;4.80;;;;;;;;;;5071644;28;20035;-48
2021/08/12 08:22:23;;;;;;;5.85;4.80;;;;;;;;;;5071734;28;20047;-45
2021/08/12 08:24:49;;;;;;;5.57;5.10;;;;;;;;;;5071735;28;20082;-45
2021/08/12 08:27:15;;;;;;;6.65;5.10;;;;;;;;;;5071675;28;20021;-48
2021/08/12 08:29:41;;;;;;;5.22;4.78;;;;;;;;;;5072100;28;20387;-48
2021/08/12 08:32:08;;;;;;;5.28;4.47;;;;;;;;;;5071923;28;20380;-46
2021/08/12 08:34:34;;;;;;;6.43;4.85;;;;;;;;;;5071646;28;20031;-46
2021/08/12 08:37:01;;;;;;;5.70;4.55;;;;;;;;;;5054012;28;20158;-48
2021/08/12 08:39:27;;;;;;;4.90;4.50;;;;;;;;;;5071599;28;20594;-47
2021/08/12 08:41:53;;;;;;;5.28;4.78;;;;;;;;;;5053471;28;20112;-50
2021/08/12 08:44:19;;;;;;;6.97;5.20;;;;;;;;;;5071507;28;20154;-46
2021/08/12 08:46:47;;;;;;;5.78;4.72;;;;;;;;;;5071289;28;20052;-50
2021/08/12 08:49:14;;;;;;;5.65;4.75;;;;;;;;;;5071482;28;20025;-47
2021/08/12 08:51:40;;;;;;;6.05;4.82;;;;;;;;;;5071346;28;20017;-47
2021/08/12 08:54:06;;;;;;;5.53;5.00;;;;;;;;;;5071470;28;20024;-50
2021/08/12 08:56:33;;;;;;;7.07;5.35;;;;;;;;;;5071122;28;20503;-46
2021/08/12 08:58:59;;;;;;;5.95;4.60;;;;;;;;;;5071358;28;20037;-46
2021/08/12 09:01:25;;;;;;;7.40;4.50;;;;;;;;;;5071257;28;20031;-46
2021/08/12 09:03:51;;;;;;;6.88;5.03;;;;;;;;;;5071300;28;20051;-47
2021/08/12 09:06:17;;;;;;;7.45;5.10;;;;;;;;;;5071183;28;20108;-47
2021/08/12 09:08:44;;;;;;;5.43;4.93;;;;;;;;;;5071154;28;20115;-50
2021/08/12 09:11:10;;;;;;;6.05;4.85;;;;;;;;;;5071288;28;20023;-47
2021/08/12 09:13:36;;;;;;;5.88;4.80;;;;;;;;;;5071261;28;20421;-49
2021/08/12 09:16:02;;;;;;;5.90;4.97;;;;;;;;;;5071204;28;20536;-48
2021/08/12 09:18:28;;;;;;;6.43;4.63;;;;;;;;;;5070822;28;20162;-47
2021/08/12 09:20:56;;;;;;;5.45;4.20;;;;;;;;;;5071085;28;20060;-48
2021/08/12 09:23:26;;;;;;;4.95;4.45;;;;;;;;;;5071247;28;20021;-46
2021/08/12 09:25:52;;;;;;;4.68;4.20;;;;;;;;;;5071111;28;20020;-48
2021/08/12 09:28:23;;;;;;;5.05;3.97;;;;;;;;;;5070889;28;20317;-47
2021/08/12 09:31:01;;;;;;;4.45;4.05;;;;;;;;;;5070899;28;20096;-48
2021/08/12 09:33:31;;;;;;;3.50;3.15;;;;;;;;;;5074397;28;20021;-50
2021/08/12 09:35:58;;;;;;;5.18;3.60;;;;;;;;;;5074849;28;20021;-50
2021/08/12 09:38:25;;;;;;;4.43;4.03;;;;;;;;;;5074752;28;20104;-46
2021/08/12 09:40:54;;;;;;;4.93;3.42;;;;;;;;;;5074687;28;20016;-46
2021/08/12 09:43:20;;;;;;;4.70;4.05;;;;;;;;;;5074648;28;20017;-48
2021/08/12 09:45:46;;;;;;;5.38;3.83;;;;;;;;;;5074652;28;20013;-47
2021/08/12 09:48:13;;;;;;;3.60;3.05;;;;;;;;;;5074673;28;20395;-49
2021/08/12 09:50:40;;;;;;;4.63;3.60;;;;;;;;;;5074476;28;20017;-48
2021/08/12 09:53:07;;;;;;;7.95;3.80;;;;;;;;;;5056551;28;20468;-47
2021/08/12 09:55:40;;;;;;;5.15;3.38;;;;;;;;;;5074557;28;20468;-46
2021/08/12 09:58:06;;;;;;;6.10;3.72;;;;;;;;;;5074457;28;20032;-49
2021/08/12 10:00:32;;;;;;;11.20;3.75;;;;;;;;;;5074354;28;20413;-48
2021/08/12 10:02:59;;;;;;;3.75;2.78;;;;;;;;;;5056511;28;20078;-47
2021/08/12 10:05:25;;;;;;;3.47;3.17;;;;;;;;;;5074660;28;20125;-48
2021/08/12 10:07:53;;;;;;;3.22;2.92;;;;;;;;;;5056167;28;20029;-46
2021/08/12 10:10:20;;;;;;;3.65;3.10;;;;;;;;;;5074050;28;20471;-48
2021/08/12 10:12:50;;;;;;;4.22;3.22;;;;;;;;;;5074129;28;20029;-47
2021/08/12 10:15:25;;;;;;;3.15;2.85;;;;;;;;;;5074064;28;20013;-48
2021/08/12 10:17:51;;;;;;;4.10;3.17;;;;;;;;;;5073853;28;20155;-49
2021/08/12 10:20:23;;;;;;;3.25;2.80;;;;;;;;;;5074253;28;20039;-46
2021/08/12 10:22:50;;;;;;;4.25;3.00;;;;;;;;;;5073798;28;20067;-47
2021/08/12 10:25:16;;;;;;;3.85;2.67;;;;;;;;;;5073989;28;20078;-50
2021/08/12 10:27:43;;;;;;;4.40;2.83;;;;;;;;;;5073949;28;20032;-50
2021/08/12 10:30:10;;;;;;;3.20;2.65;;;;;;;;;;5073789;28;20100;-51
2021/08/12 10:32:41;;;;;;;3.75;2.60;;;;;;;;;;5074131;28;20017;-46
2021/08/12 10:35:07;;;;;;;4.63;3.08;;;;;;;;;;5073923;28;20052;-47
2021/08/12 10:37:33;;;;;;;3.05;2.70;;;;;;;;;;5073611;28;20024;-46
2021/08/12 10:39:59;;;;;;;3.97;2.58;;;;;;;;;;5073755;28;20025;-46
2021/08/12 10:42:26;;;;;;;5.70;2.90;;;;;;;;;;5073646;28;20541;-46
2021/08/12 10:44:52;;;;;;;4.22;2.70;;;;;;;;;;5072396;28;20033;-47
2021/08/12 10:47:38;;;;;;;4.10;3.10;;;;;;;;;;5073949;28;20051;-47
2021/08/12 10:50:34;;;;;;;3.00;2.80;;;;;;;;;;5073444;28;20028;-48
2021/08/12 10:53:07;;;;;;;3.05;2.75;;;;;;;;;;5050514;28;20062;-47
2021/08/12 10:55:52;;;;;;;4.10;2.65;;;;;;;;;;5073491;28;20099;-49
2021/08/12 10:58:19;;;;;;;2.88;2.60;;;;;;;;;;5072800;28;20036;-46
2021/08/12 11:00:45;;;;;;;4.50;3.33;;;;;;;;;;5073504;28;20027;-48
2021/08/12 11:03:11;;;;;;;3.35;3.05;;;;;;;;;;5082849;28;20101;-47
2021/08/12 11:06:03;;;;;;;5.82;3.22;;;;;;;;;;5083873;28;20456;-48
2021/08/12 11:08:59;;;;;;;3.33;2.90;;;;;;;;;;5079494;28;20055;-47
2021/08/12 11:11:31;;;;;;;3.40;3.10;;;;;;;;;;5065019;28;20051;-49
2021/08/12 11:14:01;;;;;;;5.30;3.05;;;;;;;;;;5082792;28;20050;-48
2021/08/12 11:16:28;;;;;;;5.45;2.92;;;;;;;;;;5082087;28;20506;-47
2021/08/12 11:18:56;;;;;;;3.40;3.10;;;;;;;;;;5080717;28;20037;-50
2021/08/12 11:21:33;;;;;;;3.40;2.90;;;;;;;;;;5063369;28;20020;-49
2021/08/12 11:24:11;;;;;;;2.83;2.63;;;;;;;;;;5063286;28;20021;-49
2021/08/12 11:26:47;;;;;;;3.30;3.00;;;;;;;;;;5080988;28;20141;-48
2021/08/12 11:29:28;;;;;;;3.83;2.90;;;;;;;;;;5063213;28;20135;-51
2021/08/12 11:31:57;;;;;;;4.13;3.00;;;;;;;;;;5061929;28;20016;-52
2021/08/12 11:34:23;;;;;;;3.10;2.78;;;;;;;;;;5080730;28;20467;-50
2021/08/12 11:37:06;;;;;;;2.60;2.40;;;;;;;;;;5063384;28;20025;-46
2021/08/12 11:39:32;;;;;;;2.90;2.55;;;;;;;;;;5082264;28;20035;-48
2021/08/12 11:41:59;;;;;;;2.63;2.42;;;;;;;;;;5062225;28;20035;-47
2021/08/12 11:44:25;;;;;;;3.97;2.40;;;;;;;;;;5083055;28;20024;-51
2021/08/12 11:46:52;;;;;;;5.50;3.15;;;;;;;;;;5081041;28;20028;-47
2021/08/12 11:49:19;;;;;;;2.70;2.50;;;;;;;;;;5064397;28;20466;-48
2021/08/12 11:51:45;;;;;;;3.10;2.80;;;;;;;;;;5062858;28;20036;-47
2021/08/12 11:54:11;;;;;;;3.05;2.60;;;;;;;;;;5062266;28;20024;-50
2021/08/12 11:56:38;;;;;;;3.63;3.33;;;;;;;;;;5081892;28;20498;-50
2021/08/12 11:59:04;;;;;;;3.55;3.13;;;;;;;;;;5081006;28;20032;-48
2021/08/12 12:01:34;;;;;;;6.55;2.83;;;;;;;;;;5080401;28;20019;-50
2021/08/12 12:04:02;;;;;;;5.40;3.22;;;;;;;;;;5061834;28;20054;-46
2021/08/12 12:06:29;;;;;;;4.30;2.65;;;;;;;;;;5080801;28;20040;-50
2021/08/12 12:08:55;;;;;;;3.67;3.05;;;;;;;;;;5081935;28;20024;-48
2021/08/12 12:11:21;;;;;;;4.47;3.00;;;;;;;;;;5079847;28;20024;-50
2021/08/12 12:13:47;;;;;;;5.03;3.30;;;;;;;;;;5080801;28;20023;-47
2021/08/12 12:16:13;;;;;;;4.00;2.97;;;;;;;;;;5081573;28;20396;-48
2021/08/12 12:18:43;;;;;;;3.00;2.70;;;;;;;;;;5079371;28;20044;-48
2021/08/12 12:21:10;;;;;;;3.42;3.00;;;;;;;;;;5080465;28;20018;-45
2021/08/12 12:23:43;;;;;;;5.10;3.40;;;;;;;;;;5081694;28;20082;-50
2021/08/12 12:26:24;;;;;;;4.03;3.15;;;;;;;;;;5080686;28;20021;-50
2021/08/12 12:28:50;;;;;;;4.15;2.65;;;;;;;;;;5080881;28;20024;-47
2021/08/12 12:31:17;;;;;;;3.80;2.83;;;;;;;;;;5079484;28;20423;-48
2021/08/12 12:33:44;;;;;;;2.97;2.67;;;;;;;;;;5081109;28;20020;-50
2021/08/12 12:36:10;;;;;;;3.17;2.65;;;;;;;;;;5080667;28;20020;-47
2021/08/12 12:38:36;;;;;;;3.10;2.78;;;;;;;;;;5079356;28;20021;-50
2021/08/12 12:41:07;;;;;;;2.80;2.60;;;;;;;;;;5081404;28;20023;-47
2021/08/12 12:43:33;;;;;;;4.18;2.95;;;;;;;;;;5081438;28;20020;-48
2021/08/12 12:45:59;;;;;;;10.13;2.85;;;;;;;;;;5079249;28;20099;-47
2021/08/12 12:48:30;;;;;;;3.35;2.53;;;;;;;;;;5080898;28;20065;-50
2021/08/12 12:50:56;;;;;;;4.45;3.10;;;;;;;;;;5081678;28;20387;-47
2021/08/12 12:53:33;;;;;;;4.07;2.85;;;;;;;;;;5081244;28;20027;-47
2021/08/12 12:55:59;;;;;;;2.60;2.40;;;;;;;;;;5081404;28;20020;-48
2021/08/12 12:58:26;;;;;;;5.60;2.53;;;;;;;;;;5061977;28;20111;-49
2021/08/12 13:01:09;;;;;;;4.93;2.85;;;;;;;;;;5079807;28;20028;-49
2021/08/12 13:03:45;;;;;;;2.85;2.60;;;;;;;;;;5081198;28;20028;-49
2021/08/12 13:06:15;;;;;;;3.58;2.80;;;;;;;;;;5080597;28;20025;-45
2021/08/12 13:08:41;;;;;;;4.40;2.50;;;;;;;;;;5083193;28;20353;-47
2021/08/12 13:11:09;;;;;;;2.47;2.20;;;;;;;;;;5084250;28;20471;-47
2021/08/12 13:13:36;;;;;;;6.00;2.70;;;;;;;;;;5085193;28;20048;-49
2021/08/12 13:16:03;;;;;;;2.60;2.35;;;;;;;;;;5083516;28;20039;-48
2021/08/12 13:18:48;;;;;;;4.25;2.55;;;;;;;;;;5083674;28;20119;-48
2021/08/12 13:21:33;;;;;;;3.13;2.83;;;;;;;;;;5085410;28;20516;-49
2021/08/12 13:24:00;;;;;;;3.08;2.30;;;;;;;;;;5085035;28;20093;-49
2021/08/12 13:26:34;;;;;;;3.00;2.40;;;;;;;;;;5083806;28;20016;-47
2021/08/12 13:29:19;;;;;;;2.67;2.47;;;;;;;;;;5082815;28;20020;-47
2021/08/12 13:31:50;;;;;;;2.85;2.50;;;;;;;;;;5083798;28;20105;-49
2021/08/12 13:34:16;;;;;;;2.90;2.20;;;;;;;;;;5082872;28;20032;-49
2021/08/12 13:36:43;;;;;;;5.22;2.40;;;;;;;;;;5084533;28;20076;-48
2021/08/12 13:39:09;;;;;;;2.78;2.25;;;;;;;;;;5083821;28;20036;-48
2021/08/12 13:41:44;;;;;;;3.70;2.53;;;;;;;;;;5082702;28;20031;-47
2021/08/12 13:44:10;;;;;;;2.15;2.03;;;;;;;;;;5083903;28;20020;-49
2021/08/12 13:46:36;;;;;;;3.63;2.40;;;;;;;;;;5082712;28;20040;-48
2021/08/12 13:49:02;;;;;;;2.45;2.25;;;;;;;;;;5084248;28;20016;-49
2021/08/12 13:51:30;;;;;;;2.15;2.05;;;;;;;;;;5083808;28;20104;-47
2021/08/12 13:53:56;;;;;;;6.05;2.25;;;;;;;;;;5064364;28;20025;-50
2021/08/12 13:56:22;;;;;;;2.08;1.70;;;;;;;;;;5082303;28;20017;-47
2021/08/12 13:58:48;;;;;;;3.53;1.90;;;;;;;;;;5083313;28;20429;-47
2021/08/12 14:01:14;;;;;;;3.10;2.13;;;;;;;;;;5084165;28;20013;-50
2021/08/12 14:03:40;;;;;;;2.60;2.28;;;;;;;;;;5082013;28;20024;-46
2021/08/12 14:06:06;;;;;;;2.08;1.95;;;;;;;;;;5083462;28;20046;-46
2021/08/12 14:08:32;;;;;;;4.00;2.22;;;;;;;;;;5083725;28;20024;-45
2021/08/12 14:10:58;;;;;;;2.13;1.92;;;;;;;;;;5081959;28;20031;-46
2021/08/12 14:13:25;;;;;;;2.03;1.92;;;;;;;;;;5083560;28;20073;-50
2021/08/12 14:15:51;;;;;;;5.22;2.30;;;;;;;;;;5083381;28;20028;-48
2021/08/12 14:18:17;;;;;;;3.10;2.15;;;;;;;;;;5081350;28;20048;-47
2021/08/12 14:20:43;;;;;;;3.70;2.25;;;;;;;;;;5083873;28;20027;-46
2021/08/12 14:23:09;;;;;;;4.05;2.70;;;;;;;;;;5082881;28;20031;-46
2021/08/12 14:25:35;;;;;;;2.53;1.83;;;;;;;;;;5081914;28;20016;-47
2021/08/12 14:28:01;;;;;;;1.90;1.80;;;;;;;;;;5083734;28;20073;-47
2021/08/12 14:30:27;;;;;;;2.40;2.20;;;;;;;;;;5082874;28;20016;-47
2021/08/12 14:32:53;;;;;;;2.92;2.40;;;;;;;;;;5081932;28;20028;-49
2021/08/12 14:35:19;;;;;;;4.05;2.20;;;;;;;;;;5083589;28;20020;-47
2021/08/12 14:37:45;;;;;;;2.63;2.30;;;;;;;;;;5064271;28;20463;-47
2021/08/12 14:40:12;;;;;;;3.22;2.08;;;;;;;;;;5077131;28;20574;-51
2021/08/12 14:42:38;;;;;;;2.78;2.13;;;;;;;;;;5073802;28;20036;-48
2021/08/12 14:45:05;;;;;;;2.60;2.10;;;;;;;;;;5073771;28;20480;-48